KATT

Austin City Airport

Austin, Texas, USA
METAR KATT 212239Z AUTO 12005KT 4SM BR FEW023 BKN028 OVC041 22/19 A2989 RMK AO2 RAB15E29 P0000 T02170194
Observed Flight Rules
Apr-21 @ 22:39 UTC (21 minutes ago) Marginal Visual Flight Rules
Wind Visibility Clouds Conditions
120° at 5 knots 4 miles
  • Few at 2,300' AGL
  • Broken at 2,800' AGL
  • Overcast at 4,100' AGL
  • Mist
Temperatures Readings Precipitation
Current 22°C / 72°F
Dewpoint 19°C / 66°F
Humidity 83%
Altimeter 29.89" Hg
Pressure 1012 hPa
Elevation 201
Current Rain 0.005
METAR KATT 212239Z AUTO 12005KT 4SM BR FEW023 BKN028 OVC041 22/19 A2989 RMK AO2 RAB15E29 P0000 T02170194
Observed Flight Rules
Apr-21 @ 22:39 UTC
(21 minutes ago)
MVFR
Wind Visibility
120° at 5 knots 4 miles
Clouds
  • Few at 2,300' AGL
  • Broken at 2,800' AGL
  • Overcast at 4,100' AGL
Conditions
  • Mist
Temperature Dewpoint
22°C / 72°F 19°C / 66°F
Humidity Altimeter Pressure
83% 29.89" Hg 1012 hPa
Current Rain
0.005